sensor_id;sensor_type;location;lat;lon;timestamp;temperature;humidity
8872;DHT22;4472;52.092;9.820;2023-05-24T00:00:51;6.30;99.90
8872;DHT22;4472;52.092;9.820;2023-05-24T00:03:38;6.30;99.90
8872;DHT22;4472;52.092;9.820;2023-05-24T00:06:26;6.30;99.90
8872;DHT22;4472;52.092;9.820;2023-05-24T00:09:13;6.30;99.90
8872;DHT22;4472;52.092;9.820;2023-05-24T00:12:02;6.20;99.90
8872;DHT22;4472;52.092;9.820;2023-05-24T00:14:49;6.20;99.90
8872;DHT22;4472;52.092;9.820;2023-05-24T00:17:36;6.10;99.90
8872;DHT22;4472;52.092;9.820;2023-05-24T00:20:25;6.10;99.90
8872;DHT22;4472;52.092;9.820;2023-05-24T00:23:13;6.10;99.90
8872;DHT22;4472;52.092;9.820;2023-05-24T00:26:00;6.20;99.90
8872;DHT22;4472;52.092;9.820;2023-05-24T00:28:48;6.20;99.90
8872;DHT22;4472;52.092;9.820;2023-05-24T00:31:35;6.30;99.90
8872;DHT22;4472;52.092;9.820;2023-05-24T00:34:23;6.20;99.90
8872;DHT22;4472;52.092;9.820;2023-05-24T00:37:10;6.30;99.90
8872;DHT22;4472;52.092;9.820;2023-05-24T00:39:57;6.30;99.90
8872;DHT22;4472;52.092;9.820;2023-05-24T00:42:44;6.40;99.90
8872;DHT22;4472;52.092;9.820;2023-05-24T00:45:33;6.20;99.90
8872;DHT22;4472;52.092;9.820;2023-05-24T00:48:20;6.30;99.90
8872;DHT22;4472;52.092;9.820;2023-05-24T00:51:12;6.40;99.90
8872;DHT22;4472;52.092;9.820;2023-05-24T00:53:59;6.50;99.90
8872;DHT22;4472;52.092;9.820;2023-05-24T00:56:47;6.50;99.90
8872;DHT22;4472;52.092;9.820;2023-05-24T00:59:35;6.60;99.90
8872;DHT22;4472;52.092;9.820;2023-05-24T01:02:23;6.60;99.90
8872;DHT22;4472;52.092;9.820;2023-05-24T01:05:11;6.60;99.90
8872;DHT22;4472;52.092;9.820;2023-05-24T01:08:06;6.50;99.90
8872;DHT22;4472;52.092;9.820;2023-05-24T01:11:00;6.50;99.90
8872;DHT22;4472;52.092;9.820;2023-05-24T01:13:57;6.60;99.90
8872;DHT22;4472;52.092;9.820;2023-05-24T01:16:49;6.60;99.90
8872;DHT22;4472;52.092;9.820;2023-05-24T01:20:03;6.60;99.90
8872;DHT22;4472;52.092;9.820;2023-05-24T01:23:17;6.70;99.90
8872;DHT22;4472;52.092;9.820;2023-05-24T01:26:19;6.70;99.90
8872;DHT22;4472;52.092;9.820;2023-05-24T01:29:09;6.60;99.90
8872;DHT22;4472;52.092;9.820;2023-05-24T01:31:56;6.60;99.90
8872;DHT22;4472;52.092;9.820;2023-05-24T01:34:43;6.60;99.90
8872;DHT22;4472;52.092;9.820;2023-05-24T01:37:30;6.60;99.90
8872;DHT22;4472;52.092;9.820;2023-05-24T01:40:18;6.60;99.90
8872;DHT22;4472;52.092;9.820;2023-05-24T01:43:13;6.60;99.90
8872;DHT22;4472;52.092;9.820;2023-05-24T01:46:10;6.60;99.90
8872;DHT22;4472;52.092;9.820;2023-05-24T01:49:08;6.60;99.90
8872;DHT22;4472;52.092;9.820;2023-05-24T01:52:01;6.60;99.90
8872;DHT22;4472;52.092;9.820;2023-05-24T01:54:51;6.60;99.90
8872;DHT22;4472;52.092;9.820;2023-05-24T01:57:39;6.70;99.90
8872;DHT22;4472;52.092;9.820;2023-05-24T02:00:30;6.70;99.90
8872;DHT22;4472;52.092;9.820;2023-05-24T02:03:20;7.30;99.90
8872;DHT22;4472;52.092;9.820;2023-05-24T02:06:07;6.80;99.90
8872;DHT22;4472;52.092;9.820;2023-05-24T02:08:55;6.80;99.90
8872;DHT22;4472;52.092;9.820;2023-05-24T02:11:42;6.80;99.90
8872;DHT22;4472;52.092;9.820;2023-05-24T02:14:29;6.80;99.90
8872;DHT22;4472;52.092;9.820;2023-05-24T02:17:16;6.80;99.90
8872;DHT22;4472;52.092;9.820;2023-05-24T02:20:06;6.90;99.90
8872;DHT22;4472;52.092;9.820;2023-05-24T02:22:54;6.80;99.90
8872;DHT22;4472;52.092;9.820;2023-05-24T02:25:41;6.80;99.90
8872;DHT22;4472;52.092;9.820;2023-05-24T02:28:28;6.80;99.90
8872;DHT22;4472;52.092;9.820;2023-05-24T02:31:17;6.80;99.90
8872;DHT22;4472;52.092;9.820;2023-05-24T02:34:04;6.80;99.90
8872;DHT22;4472;52.092;9.820;2023-05-24T02:36:52;6.80;99.90
8872;DHT22;4472;52.092;9.820;2023-05-24T02:39:40;6.80;99.90
8872;DHT22;4472;52.092;9.820;2023-05-24T02:42:27;6.90;99.90
8872;DHT22;4472;52.092;9.820;2023-05-24T02:45:15;6.80;99.90
8872;DHT22;4472;52.092;9.820;2023-05-24T02:48:02;6.80;99.90
8872;DHT22;4472;52.092;9.820;2023-05-24T02:50:49;6.70;99.90
8872;DHT22;4472;52.092;9.820;2023-05-24T02:53:38;6.70;99.90
8872;DHT22;4472;52.092;9.820;2023-05-24T02:56:28;6.70;99.90
8872;DHT22;4472;52.092;9.820;2023-05-24T02:59:15;6.70;99.90
8872;DHT22;4472;52.092;9.820;2023-05-24T03:02:02;6.70;99.90
8872;DHT22;4472;52.092;9.820;2023-05-24T03:04:49;6.70;99.90
8872;DHT22;4472;52.092;9.820;2023-05-24T03:07:36;6.70;99.90
8872;DHT22;4472;52.092;9.820;2023-05-24T03:10:25;6.70;99.90
8872;DHT22;4472;52.092;9.820;2023-05-24T03:13:12;6.70;99.90
8872;DHT22;4472;52.092;9.820;2023-05-24T03:15:59;6.70;99.90
8872;DHT22;4472;52.092;9.820;2023-05-24T03:18:46;6.80;99.90
8872;DHT22;4472;52.092;9.820;2023-05-24T03:21:35;6.80;99.90
8872;DHT22;4472;52.092;9.820;2023-05-24T03:24:22;6.80;99.90
8872;DHT22;4472;52.092;9.820;2023-05-24T03:27:12;6.80;99.90
8872;DHT22;4472;52.092;9.820;2023-05-24T03:29:59;6.80;99.90
8872;DHT22;4472;52.092;9.820;2023-05-24T03:32:46;6.80;99.90
8872;DHT22;4472;52.092;9.820;2023-05-24T03:35:33;6.90;99.90
8872;DHT22;4472;52.092;9.820;2023-05-24T03:38:20;7.00;99.90
8872;DHT22;4472;52.092;9.820;2023-05-24T03:41:07;7.10;99.90
8872;DHT22;4472;52.092;9.820;2023-05-24T03:43:56;7.10;99.90
8872;DHT22;4472;52.092;9.820;2023-05-24T03:46:43;7.20;99.90
8872;DHT22;4472;52.092;9.820;2023-05-24T03:49:31;7.20;99.90
8872;DHT22;4472;52.092;9.820;2023-05-24T03:52:18;7.30;99.90
8872;DHT22;4472;52.092;9.820;2023-05-24T03:55:06;7.40;99.90
8872;DHT22;4472;52.092;9.820;2023-05-24T03:57:53;7.50;99.90
8872;DHT22;4472;52.092;9.820;2023-05-24T04:00:42;7.60;99.90
8872;DHT22;4472;52.092;9.820;2023-05-24T04:03:29;7.70;99.90
8872;DHT22;4472;52.092;9.820;2023-05-24T04:06:18;7.70;99.90
8872;DHT22;4472;52.092;9.820;2023-05-24T04:09:06;7.70;99.90
8872;DHT22;4472;52.092;9.820;2023-05-24T04:11:57;7.70;99.90
8872;DHT22;4472;52.092;9.820;2023-05-24T04:14:45;7.80;99.90
8872;DHT22;4472;52.092;9.820;2023-05-24T04:17:34;7.80;99.90
8872;DHT22;4472;52.092;9.820;2023-05-24T04:20:22;8.00;99.90
8872;DHT22;4472;52.092;9.820;2023-05-24T04:23:10;8.00;99.90
8872;DHT22;4472;52.092;9.820;2023-05-24T04:25:57;8.00;99.90
8872;DHT22;4472;52.092;9.820;2023-05-24T04:28:44;8.10;99.90
8872;DHT22;4472;52.092;9.820;2023-05-24T04:31:31;8.20;99.90
8872;DHT22;4472;52.092;9.820;2023-05-24T04:34:20;8.20;99.90
8872;DHT22;4472;52.092;9.820;2023-05-24T04:37:08;8.40;99.90
8872;DHT22;4472;52.092;9.820;2023-05-24T04:39:55;8.50;99.90
8872;DHT22;4472;52.092;9.820;2023-05-24T04:42:42;8.60;99.90
8872;DHT22;4472;52.092;9.820;2023-05-24T04:45:29;8.70;99.90
8872;DHT22;4472;52.092;9.820;2023-05-24T04:48:17;8.70;99.90
8872;DHT22;4472;52.092;9.820;2023-05-24T04:51:07;8.80;99.90
8872;DHT22;4472;52.092;9.820;2023-05-24T04:53:54;8.80;99.90
8872;DHT22;4472;52.092;9.820;2023-05-24T04:56:41;9.10;99.90
8872;DHT22;4472;52.092;9.820;2023-05-24T04:59:28;9.00;99.90
8872;DHT22;4472;52.092;9.820;2023-05-24T05:02:15;9.10;99.90
8872;DHT22;4472;52.092;9.820;2023-05-24T05:05:03;9.20;99.90
8872;DHT22;4472;52.092;9.820;2023-05-24T05:07:51;9.40;99.90
8872;DHT22;4472;52.092;9.820;2023-05-24T05:10:39;9.50;99.90
8872;DHT22;4472;52.092;9.820;2023-05-24T05:13:26;9.60;99.90
8872;DHT22;4472;52.092;9.820;2023-05-24T05:16:14;9.70;99.90
8872;DHT22;4472;52.092;9.820;2023-05-24T05:19:01;9.80;99.90
8872;DHT22;4472;52.092;9.820;2023-05-24T05:21:49;9.90;99.90
8872;DHT22;4472;52.092;9.820;2023-05-24T05:24:38;9.80;99.90
8872;DHT22;4472;52.092;9.820;2023-05-24T05:27:25;9.80;99.90
8872;DHT22;4472;52.092;9.820;2023-05-24T05:30:12;9.90;99.90
8872;DHT22;4472;52.092;9.820;2023-05-24T05:33:00;9.90;99.90
8872;DHT22;4472;52.092;9.820;2023-05-24T05:35:47;10.00;99.90
8872;DHT22;4472;52.092;9.820;2023-05-24T05:38:34;10.20;99.90
8872;DHT22;4472;52.092;9.820;2023-05-24T05:41:23;10.10;99.90
8872;DHT22;4472;52.092;9.820;2023-05-24T05:44:10;10.10;99.90
8872;DHT22;4472;52.092;9.820;2023-05-24T05:46:57;10.10;99.90
8872;DHT22;4472;52.092;9.820;2023-05-24T05:49:44;10.10;99.90
8872;DHT22;4472;52.092;9.820;2023-05-24T05:52:31;10.50;99.90
8872;DHT22;4472;52.092;9.820;2023-05-24T05:55:19;10.00;99.90
8872;DHT22;4472;52.092;9.820;2023-05-24T05:58:07;9.90;99.90
8872;DHT22;4472;52.092;9.820;2023-05-24T06:03:42;10.10;99.90
8872;DHT22;4472;52.092;9.820;2023-05-24T06:06:29;10.10;99.90
8872;DHT22;4472;52.092;9.820;2023-05-24T06:09:16;10.20;99.90
8872;DHT22;4472;52.092;9.820;2023-05-24T06:12:04;10.50;99.90
8872;DHT22;4472;52.092;9.820;2023-05-24T06:14:52;10.50;99.90
8872;DHT22;4472;52.092;9.820;2023-05-24T06:17:42;10.60;99.90
8872;DHT22;4472;52.092;9.820;2023-05-24T06:20:32;10.70;99.90
8872;DHT22;4472;52.092;9.820;2023-05-24T06:23:19;11.00;99.90
8872;DHT22;4472;52.092;9.820;2023-05-24T06:26:06;11.20;99.90
8872;DHT22;4472;52.092;9.820;2023-05-24T06:28:55;11.30;99.90
8872;DHT22;4472;52.092;9.820;2023-05-24T06:31:44;11.50;99.90
8872;DHT22;4472;52.092;9.820;2023-05-24T06:34:32;11.60;99.90
8872;DHT22;4472;52.092;9.820;2023-05-24T06:37:19;11.30;99.90
8872;DHT22;4472;52.092;9.820;2023-05-24T06:40:11;11.30;99.90
8872;DHT22;4472;52.092;9.820;2023-05-24T06:42:58;11.20;99.90
8872;DHT22;4472;52.092;9.820;2023-05-24T06:45:45;11.20;99.90
8872;DHT22;4472;52.092;9.820;2023-05-24T06:48:34;11.10;99.90
8872;DHT22;4472;52.092;9.820;2023-05-24T06:51:21;11.30;99.90
8872;DHT22;4472;52.092;9.820;2023-05-24T06:56:56;11.50;99.90
8872;DHT22;4472;52.092;9.820;2023-05-24T06:59:43;11.60;99.90
8872;DHT22;4472;52.092;9.820;2023-05-24T07:02:31;11.70;99.90
8872;DHT22;4472;52.092;9.820;2023-05-24T07:05:19;11.90;99.90
8872;DHT22;4472;52.092;9.820;2023-05-24T07:08:07;12.10;99.90
8872;DHT22;4472;52.092;9.820;2023-05-24T07:10:54;12.30;99.90
8872;DHT22;4472;52.092;9.820;2023-05-24T07:13:41;12.40;99.90
8872;DHT22;4472;52.092;9.820;2023-05-24T07:16:28;12.50;99.90
8872;DHT22;4472;52.092;9.820;2023-05-24T07:19:16;12.50;99.90
8872;DHT22;4472;52.092;9.820;2023-05-24T07:22:04;12.70;99.90
8872;DHT22;4472;52.092;9.820;2023-05-24T07:24:52;12.80;99.90
8872;DHT22;4472;52.092;9.820;2023-05-24T07:27:39;12.80;99.90
8872;DHT22;4472;52.092;9.820;2023-05-24T07:30:26;12.90;99.90
8872;DHT22;4472;52.092;9.820;2023-05-24T07:33:13;12.90;99.90
8872;DHT22;4472;52.092;9.820;2023-05-24T07:36:01;12.80;99.90
8872;DHT22;4472;52.092;9.820;2023-05-24T07:38:49;12.70;99.90
8872;DHT22;4472;52.092;9.820;2023-05-24T07:41:36;12.60;99.90
8872;DHT22;4472;52.092;9.820;2023-05-24T07:44:24;12.40;99.90
8872;DHT22;4472;52.092;9.820;2023-05-24T07:47:11;12.40;99.90
8872;DHT22;4472;52.092;9.820;2023-05-24T07:49:59;12.30;99.90
8872;DHT22;4472;52.092;9.820;2023-05-24T07:52:46;12.40;99.90
8872;DHT22;4472;52.092;9.820;2023-05-24T07:55:34;12.40;99.90
8872;DHT22;4472;52.092;9.820;2023-05-24T07:58:21;12.40;99.90
8872;DHT22;4472;52.092;9.820;2023-05-24T08:01:09;12.30;99.90
8872;DHT22;4472;52.092;9.820;2023-05-24T08:03:56;12.20;99.90
8872;DHT22;4472;52.092;9.820;2023-05-24T08:06:43;12.20;99.90
8872;DHT22;4472;52.092;9.820;2023-05-24T08:09:31;12.30;99.90
8872;DHT22;4472;52.092;9.820;2023-05-24T08:12:22;12.30;99.90
8872;DHT22;4472;52.092;9.820;2023-05-24T08:15:10;12.70;99.90
8872;DHT22;4472;52.092;9.820;2023-05-24T08:17:58;13.00;99.90
8872;DHT22;4472;52.092;9.820;2023-05-24T08:20:45;13.00;99.90
8872;DHT22;4472;52.092;9.820;2023-05-24T08:23:32;12.90;99.90
8872;DHT22;4472;52.092;9.820;2023-05-24T08:26:19;12.80;99.90
8872;DHT22;4472;52.092;9.820;2023-05-24T08:29:08;12.80;99.90
8872;DHT22;4472;52.092;9.820;2023-05-24T08:31:55;13.00;99.90
8872;DHT22;4472;52.092;9.820;2023-05-24T08:34:42;13.20;99.90
8872;DHT22;4472;52.092;9.820;2023-05-24T08:37:30;13.30;99.90
8872;DHT22;4472;52.092;9.820;2023-05-24T08:40:18;13.30;99.90
8872;DHT22;4472;52.092;9.820;2023-05-24T08:43:06;13.40;99.90
8872;DHT22;4472;52.092;9.820;2023-05-24T08:45:58;13.50;99.90
8872;DHT22;4472;52.092;9.820;2023-05-24T08:48:47;13.30;99.90
8872;DHT22;4472;52.092;9.820;2023-05-24T08:51:35;13.20;99.90
8872;DHT22;4472;52.092;9.820;2023-05-24T08:54:23;12.90;99.90
8872;DHT22;4472;52.092;9.820;2023-05-24T08:57:11;12.60;99.90
8872;DHT22;4472;52.092;9.820;2023-05-24T08:59:58;12.40;99.90
8872;DHT22;4472;52.092;9.820;2023-05-24T09:02:48;12.20;99.90
8872;DHT22;4472;52.092;9.820;2023-05-24T09:05:36;12.20;99.90
8872;DHT22;4472;52.092;9.820;2023-05-24T09:08:23;12.40;99.90
8872;DHT22;4472;52.092;9.820;2023-05-24T09:11:11;12.50;99.90
8872;DHT22;4472;52.092;9.820;2023-05-24T09:16:29;12.90;99.90
8872;DHT22;4472;52.092;9.820;2023-05-24T09:19:18;13.10;99.90
8872;DHT22;4472;52.092;9.820;2023-05-24T09:22:06;13.10;99.90
8872;DHT22;4472;52.092;9.820;2023-05-24T09:24:56;12.70;99.90
8872;DHT22;4472;52.092;9.820;2023-05-24T09:27:49;12.50;99.90
8872;DHT22;4472;52.092;9.820;2023-05-24T09:30:36;12.40;99.90
8872;DHT22;4472;52.092;9.820;2023-05-24T09:33:27;12.50;99.90
8872;DHT22;4472;52.092;9.820;2023-05-24T09:36:16;12.60;99.90
8872;DHT22;4472;52.092;9.820;2023-05-24T09:39:07;12.50;99.90
8872;DHT22;4472;52.092;9.820;2023-05-24T09:41:55;12.20;99.90
8872;DHT22;4472;52.092;9.820;2023-05-24T09:44:43;12.40;99.90
8872;DHT22;4472;52.092;9.820;2023-05-24T09:47:33;12.50;99.90
8872;DHT22;4472;52.092;9.820;2023-05-24T09:50:20;12.50;99.90
8872;DHT22;4472;52.092;9.820;2023-05-24T09:53:09;12.60;99.90
8872;DHT22;4472;52.092;9.820;2023-05-24T09:55:59;12.70;99.90
8872;DHT22;4472;52.092;9.820;2023-05-24T09:58:47;12.90;99.90
8872;DHT22;4472;52.092;9.820;2023-05-24T10:01:34;13.10;99.90
8872;DHT22;4472;52.092;9.820;2023-05-24T10:04:31;13.20;99.90
8872;DHT22;4472;52.092;9.820;2023-05-24T10:07:19;13.30;99.90
8872;DHT22;4472;52.092;9.820;2023-05-24T10:10:09;13.10;99.90
8872;DHT22;4472;52.092;9.820;2023-05-24T10:12:57;13.00;99.90
8872;DHT22;4472;52.092;9.820;2023-05-24T10:15:45;12.90;99.90
8872;DHT22;4472;52.092;9.820;2023-05-24T10:18:32;12.80;99.90
8872;DHT22;4472;52.092;9.820;2023-05-24T10:21:22;12.90;99.90
8872;DHT22;4472;52.092;9.820;2023-05-24T10:24:12;13.30;99.90
8872;DHT22;4472;52.092;9.820;2023-05-24T10:27:06;13.70;99.90
8872;DHT22;4472;52.092;9.820;2023-05-24T10:30:00;14.00;99.90
8872;DHT22;4472;52.092;9.820;2023-05-24T10:32:51;14.00;99.90
8872;DHT22;4472;52.092;9.820;2023-05-24T10:35:40;13.60;99.90
8872;DHT22;4472;52.092;9.820;2023-05-24T10:38:28;13.70;99.90
8872;DHT22;4472;52.092;9.820;2023-05-24T10:41:19;13.40;99.90
8872;DHT22;4472;52.092;9.820;2023-05-24T10:47:06;13.60;99.90
8872;DHT22;4472;52.092;9.820;2023-05-24T10:49:56;13.50;99.90
8872;DHT22;4472;52.092;9.820;2023-05-24T10:52:44;13.50;99.90
8872;DHT22;4472;52.092;9.820;2023-05-24T10:55:33;13.20;99.90
8872;DHT22;4472;52.092;9.820;2023-05-24T10:58:25;13.00;99.90
8872;DHT22;4472;52.092;9.820;2023-05-24T11:01:24;13.00;99.90
8872;DHT22;4472;52.092;9.820;2023-05-24T11:04:15;12.90;99.90
8872;DHT22;4472;52.092;9.820;2023-05-24T11:07:04;13.10;99.90
8872;DHT22;4472;52.092;9.820;2023-05-24T11:09:55;13.30;99.90
8872;DHT22;4472;52.092;9.820;2023-05-24T11:12:44;13.20;99.90
8872;DHT22;4472;52.092;9.820;2023-05-24T11:15:33;13.20;99.90
8872;DHT22;4472;52.092;9.820;2023-05-24T11:18:22;13.10;99.90
8872;DHT22;4472;52.092;9.820;2023-05-24T11:21:09;13.00;99.90
8872;DHT22;4472;52.092;9.820;2023-05-24T11:23:57;12.80;99.90
8872;DHT22;4472;52.092;9.820;2023-05-24T11:26:45;12.80;99.90
8872;DHT22;4472;52.092;9.820;2023-05-24T11:29:39;12.90;99.90
8872;DHT22;4472;52.092;9.820;2023-05-24T11:32:26;12.80;99.90
8872;DHT22;4472;52.092;9.820;2023-05-24T11:35:15;12.90;99.90
8872;DHT22;4472;52.092;9.820;2023-05-24T11:38:09;12.60;99.90
8872;DHT22;4472;52.092;9.820;2023-05-24T11:40:58;12.60;99.90
8872;DHT22;4472;52.092;9.820;2023-05-24T11:43:45;12.50;99.90
8872;DHT22;4472;52.092;9.820;2023-05-24T11:46:32;12.50;99.90
8872;DHT22;4472;52.092;9.820;2023-05-24T11:49:21;12.50;99.90
8872;DHT22;4472;52.092;9.820;2023-05-24T11:52:09;12.40;99.90
8872;DHT22;4472;52.092;9.820;2023-05-24T11:54:57;12.40;99.90
8872;DHT22;4472;52.092;9.820;2023-05-24T11:57:51;12.50;99.90
8872;DHT22;4472;52.092;9.820;2023-05-24T12:00:41;12.40;99.90
8872;DHT22;4472;52.092;9.820;2023-05-24T12:03:29;12.60;99.90
8872;DHT22;4472;52.092;9.820;2023-05-24T12:06:16;12.40;99.90
8872;DHT22;4472;52.092;9.820;2023-05-24T12:09:05;12.50;99.90
8872;DHT22;4472;52.092;9.820;2023-05-24T12:11:57;12.50;99.90
8872;DHT22;4472;52.092;9.820;2023-05-24T12:14:46;12.50;99.90
8872;DHT22;4472;52.092;9.820;2023-05-24T12:17:33;12.50;99.90
8872;DHT22;4472;52.092;9.820;2023-05-24T12:20:22;12.90;99.90
8872;DHT22;4472;52.092;9.820;2023-05-24T12:23:09;12.90;99.90
8872;DHT22;4472;52.092;9.820;2023-05-24T12:26:01;13.00;99.90
8872;DHT22;4472;52.092;9.820;2023-05-24T12:28:52;13.10;99.90
8872;DHT22;4472;52.092;9.820;2023-05-24T12:31:40;13.00;99.90
8872;DHT22;4472;52.092;9.820;2023-05-24T12:34:28;12.90;99.90
8872;DHT22;4472;52.092;9.820;2023-05-24T12:37:16;13.00;99.90
8872;DHT22;4472;52.092;9.820;2023-05-24T12:40:14;13.00;99.90
8872;DHT22;4472;52.092;9.820;2023-05-24T12:43:04;13.20;99.90
8872;DHT22;4472;52.092;9.820;2023-05-24T12:45:51;13.30;99.90
8872;DHT22;4472;52.092;9.820;2023-05-24T12:48:38;13.50;99.90
8872;DHT22;4472;52.092;9.820;2023-05-24T12:51:25;13.40;99.90
8872;DHT22;4472;52.092;9.820;2023-05-24T12:54:12;13.50;99.90
8872;DHT22;4472;52.092;9.820;2023-05-24T12:56:59;13.60;99.90
8872;DHT22;4472;52.092;9.820;2023-05-24T13:02:37;13.50;99.90
8872;DHT22;4472;52.092;9.820;2023-05-24T13:05:26;13.40;99.90
8872;DHT22;4472;52.092;9.820;2023-05-24T13:08:13;13.30;99.90
8872;DHT22;4472;52.092;9.820;2023-05-24T13:11:01;13.10;99.90
8872;DHT22;4472;52.092;9.820;2023-05-24T13:13:48;13.00;99.90
8872;DHT22;4472;52.092;9.820;2023-05-24T13:16:36;13.10;99.90
8872;DHT22;4472;52.092;9.820;2023-05-24T13:19:23;13.10;99.90
8872;DHT22;4472;52.092;9.820;2023-05-24T13:22:11;13.10;99.90
8872;DHT22;4472;52.092;9.820;2023-05-24T13:24:58;13.00;99.90
8872;DHT22;4472;52.092;9.820;2023-05-24T13:27:45;13.00;99.90
8872;DHT22;4472;52.092;9.820;2023-05-24T13:30:33;12.90;99.90
8872;DHT22;4472;52.092;9.820;2023-05-24T13:33:21;12.90;99.90
8872;DHT22;4472;52.092;9.820;2023-05-24T13:36:09;13.00;99.90
8872;DHT22;4472;52.092;9.820;2023-05-24T13:38:57;13.20;99.90
8872;DHT22;4472;52.092;9.820;2023-05-24T13:41:45;13.30;99.90
8872;DHT22;4472;52.092;9.820;2023-05-24T13:44:32;13.40;99.90
8872;DHT22;4472;52.092;9.820;2023-05-24T13:47:19;13.40;99.90
8872;DHT22;4472;52.092;9.820;2023-05-24T13:50:09;13.40;99.90
8872;DHT22;4472;52.092;9.820;2023-05-24T13:52:57;13.30;99.90
8872;DHT22;4472;52.092;9.820;2023-05-24T13:55:44;13.40;99.90
8872;DHT22;4472;52.092;9.820;2023-05-24T13:58:31;13.50;99.90
8872;DHT22;4472;52.092;9.820;2023-05-24T14:01:19;13.60;99.90
8872;DHT22;4472;52.092;9.820;2023-05-24T14:04:06;13.80;99.90
8872;DHT22;4472;52.092;9.820;2023-05-24T14:06:55;13.80;99.90
8872;DHT22;4472;52.092;9.820;2023-05-24T14:09:42;14.00;99.90
8872;DHT22;4472;52.092;9.820;2023-05-24T14:12:29;14.10;99.90
8872;DHT22;4472;52.092;9.820;2023-05-24T14:15:17;14.20;99.90
8872;DHT22;4472;52.092;9.820;2023-05-24T14:18:04;14.30;99.90
8872;DHT22;4472;52.092;9.820;2023-05-24T14:20:52;14.40;99.90
8872;DHT22;4472;52.092;9.820;2023-05-24T14:23:41;14.50;99.90
8872;DHT22;4472;52.092;9.820;2023-05-24T14:26:28;14.70;99.90
8872;DHT22;4472;52.092;9.820;2023-05-24T14:29:15;14.80;99.90
8872;DHT22;4472;52.092;9.820;2023-05-24T14:32:03;15.00;99.90
8872;DHT22;4472;52.092;9.820;2023-05-24T14:34:50;15.10;99.90
8872;DHT22;4472;52.092;9.820;2023-05-24T14:37:37;15.30;99.90
8872;DHT22;4472;52.092;9.820;2023-05-24T14:40:26;15.40;99.90
8872;DHT22;4472;52.092;9.820;2023-05-24T14:43:13;15.50;99.90
8872;DHT22;4472;52.092;9.820;2023-05-24T14:46:00;15.60;99.90
8872;DHT22;4472;52.092;9.820;2023-05-24T14:48:48;15.60;99.90
8872;DHT22;4472;52.092;9.820;2023-05-24T14:51:35;15.70;99.90
8872;DHT22;4472;52.092;9.820;2023-05-24T14:54:23;15.70;99.90
8872;DHT22;4472;52.092;9.820;2023-05-24T14:57:11;15.80;99.90
8872;DHT22;4472;52.092;9.820;2023-05-24T14:59:58;15.90;99.90
8872;DHT22;4472;52.092;9.820;2023-05-24T15:02:45;16.00;99.90
8872;DHT22;4472;52.092;9.820;2023-05-24T15:05:33;16.10;99.90
8872;DHT22;4472;52.092;9.820;2023-05-24T15:08:20;16.10;99.90
8872;DHT22;4472;52.092;9.820;2023-05-24T15:11:13;16.00;99.90
8872;DHT22;4472;52.092;9.820;2023-05-24T15:14:03;16.00;99.90
8872;DHT22;4472;52.092;9.820;2023-05-24T15:16:50;15.90;99.90
8872;DHT22;4472;52.092;9.820;2023-05-24T15:19:38;16.10;99.90
8872;DHT22;4472;52.092;9.820;2023-05-24T15:22:25;16.10;99.90
8872;DHT22;4472;52.092;9.820;2023-05-24T15:25:12;16.30;99.90
8872;DHT22;4472;52.092;9.820;2023-05-24T15:27:59;16.40;99.90
8872;DHT22;4472;52.092;9.820;2023-05-24T15:30:48;16.50;99.90
8872;DHT22;4472;52.092;9.820;2023-05-24T15:33:35;16.60;99.90
8872;DHT22;4472;52.092;9.820;2023-05-24T15:36:22;16.50;99.90
8872;DHT22;4472;52.092;9.820;2023-05-24T15:39:09;16.50;99.90
8872;DHT22;4472;52.092;9.820;2023-05-24T15:41:57;16.20;99.90
8872;DHT22;4472;52.092;9.820;2023-05-24T15:44:44;16.10;99.90
8872;DHT22;4472;52.092;9.820;2023-05-24T15:47:32;16.00;99.90
8872;DHT22;4472;52.092;9.820;2023-05-24T15:50:24;15.90;99.90
8872;DHT22;4472;52.092;9.820;2023-05-24T15:53:11;15.80;99.90
8872;DHT22;4472;52.092;9.820;2023-05-24T15:55:58;15.70;99.90
8872;DHT22;4472;52.092;9.820;2023-05-24T15:58:46;15.50;99.90
8872;DHT22;4472;52.092;9.820;2023-05-24T16:01:33;15.40;99.90
8872;DHT22;4472;52.092;9.820;2023-05-24T16:04:22;15.20;99.90
8872;DHT22;4472;52.092;9.820;2023-05-24T16:07:09;15.10;99.90
8872;DHT22;4472;52.092;9.820;2023-05-24T16:09:56;14.90;99.90
8872;DHT22;4472;52.092;9.820;2023-05-24T16:12:43;14.70;99.90
8872;DHT22;4472;52.092;9.820;2023-05-24T16:15:30;14.60;99.90
8872;DHT22;4472;52.092;9.820;2023-05-24T16:18:20;14.60;99.90
8872;DHT22;4472;52.092;9.820;2023-05-24T16:21:09;14.50;99.90
8872;DHT22;4472;52.092;9.820;2023-05-24T16:23:56;14.40;99.90
8872;DHT22;4472;52.092;9.820;2023-05-24T16:26:43;14.30;99.90
8872;DHT22;4472;52.092;9.820;2023-05-24T16:29:31;14.40;99.90
8872;DHT22;4472;52.092;9.820;2023-05-24T16:32:18;14.30;99.90
8872;DHT22;4472;52.092;9.820;2023-05-24T16:35:06;14.50;99.90
8872;DHT22;4472;52.092;9.820;2023-05-24T16:37:54;14.20;99.90
8872;DHT22;4472;52.092;9.820;2023-05-24T16:40:41;14.20;99.90
8872;DHT22;4472;52.092;9.820;2023-05-24T16:43:29;14.20;99.90
8872;DHT22;4472;52.092;9.820;2023-05-24T16:46:16;14.10;99.90
8872;DHT22;4472;52.092;9.820;2023-05-24T16:49:03;14.30;99.90
8872;DHT22;4472;52.092;9.820;2023-05-24T16:51:50;14.40;99.90
8872;DHT22;4472;52.092;9.820;2023-05-24T16:54:39;14.50;99.90
8872;DHT22;4472;52.092;9.820;2023-05-24T16:57:26;14.60;99.90
8872;DHT22;4472;52.092;9.820;2023-05-24T17:00:14;14.50;99.90
8872;DHT22;4472;52.092;9.820;2023-05-24T17:03:01;14.50;99.90
8872;DHT22;4472;52.092;9.820;2023-05-24T17:05:49;14.50;99.90
8872;DHT22;4472;52.092;9.820;2023-05-24T17:08:38;14.60;99.90
8872;DHT22;4472;52.092;9.820;2023-05-24T17:11:29;14.70;99.90
8872;DHT22;4472;52.092;9.820;2023-05-24T17:14:16;14.80;99.90
8872;DHT22;4472;52.092;9.820;2023-05-24T17:17:04;14.90;99.90
8872;DHT22;4472;52.092;9.820;2023-05-24T17:19:51;15.00;99.90
8872;DHT22;4472;52.092;9.820;2023-05-24T17:22:39;15.00;99.90
8872;DHT22;4472;52.092;9.820;2023-05-24T17:25:26;15.00;99.90
8872;DHT22;4472;52.092;9.820;2023-05-24T17:28:15;15.00;99.90
8872;DHT22;4472;52.092;9.820;2023-05-24T17:31:02;14.70;99.90
8872;DHT22;4472;52.092;9.820;2023-05-24T17:33:49;15.00;99.90
8872;DHT22;4472;52.092;9.820;2023-05-24T17:36:37;15.00;99.90
8872;DHT22;4472;52.092;9.820;2023-05-24T17:39:24;14.90;99.90
8872;DHT22;4472;52.092;9.820;2023-05-24T17:42:12;14.90;99.90
8872;DHT22;4472;52.092;9.820;2023-05-24T17:45:00;14.80;99.90
8872;DHT22;4472;52.092;9.820;2023-05-24T17:47:47;14.70;99.90
8872;DHT22;4472;52.092;9.820;2023-05-24T17:50:34;14.70;99.90
8872;DHT22;4472;52.092;9.820;2023-05-24T17:53:22;14.60;99.90
8872;DHT22;4472;52.092;9.820;2023-05-24T17:56:09;14.60;99.90
8872;DHT22;4472;52.092;9.820;2023-05-24T17:58:56;14.60;99.90
8872;DHT22;4472;52.092;9.820;2023-05-24T18:01:45;14.50;99.90
8872;DHT22;4472;52.092;9.820;2023-05-24T18:04:32;14.40;99.90
8872;DHT22;4472;52.092;9.820;2023-05-24T18:07:19;14.30;99.90
8872;DHT22;4472;52.092;9.820;2023-05-24T18:10:07;14.30;99.90
8872;DHT22;4472;52.092;9.820;2023-05-24T18:12:55;14.20;99.90
8872;DHT22;4472;52.092;9.820;2023-05-24T18:15:42;14.00;99.90
8872;DHT22;4472;52.092;9.820;2023-05-24T18:18:30;14.00;99.90
8872;DHT22;4472;52.092;9.820;2023-05-24T18:21:17;13.90;99.90
8872;DHT22;4472;52.092;9.820;2023-05-24T18:24:05;13.90;99.90
8872;DHT22;4472;52.092;9.820;2023-05-24T18:26:52;13.80;99.90
8872;DHT22;4472;52.092;9.820;2023-05-24T18:29:39;13.70;99.90
8872;DHT22;4472;52.092;9.820;2023-05-24T18:32:26;13.70;99.90
8872;DHT22;4472;52.092;9.820;2023-05-24T18:35:15;13.60;99.90
8872;DHT22;4472;52.092;9.820;2023-05-24T18:38:02;13.50;99.90